Time;durP1;ratioP1;P1;durP2;ratioP2;P2;SDS_P1;SDS_P2;PMS_P1;PMS_P2;Temp;Humidity;BMP_temperature;BMP_pressure;BME280_temperature;BME280_humidity;BME280_pressure;Samples;Min_cycle;Max_cycle;Signal;HPM_P1;HPM_P2
2021/09/03 00:01:48;;;;;;;8.80;2.63;;;12.20;99.90;;;;;;4123307;28;20030;-63
2021/09/03 00:03:49;;;;;;;5.77;2.27;;;12.10;99.90;;;;;;4124239;28;20079;-63
2021/09/03 00:05:50;;;;;;;4.03;2.40;;;12.10;99.90;;;;;;4124669;28;20038;-64
2021/09/03 00:07:51;;;;;;;3.67;2.40;;;12.10;99.90;;;;;;4125159;28;20558;-66
2021/09/03 00:09:52;;;;;;;5.57;2.23;;;12.10;99.90;;;;;;4125194;28;20089;-64
2021/09/03 00:11:53;;;;;;;6.40;2.47;;;12.10;99.90;;;;;;4124272;28;20097;-65
2021/09/03 00:13:54;;;;;;;7.80;3.10;;;12.10;99.90;;;;;;4125225;28;20050;-63
2021/09/03 00:15:56;;;;;;;4.40;2.33;;;12.10;99.90;;;;;;4124047;28;20089;-67
2021/09/03 00:18:02;;;;;;;3.10;2.20;;;12.10;99.90;;;;;;4125351;28;20100;-65
2021/09/03 00:20:05;;;;;;;12.47;2.67;;;12.10;99.90;;;;;;4124139;28;20085;-63
2021/09/03 00:22:06;;;;;;;4.40;2.13;;;12.20;99.90;;;;;;4125475;28;20030;-63
2021/09/03 00:24:07;;;;;;;5.17;2.13;;;12.10;99.90;;;;;;4123971;28;20092;-65
2021/09/03 00:26:08;;;;;;;4.87;2.50;;;12.20;99.90;;;;;;4124881;28;20427;-64
2021/09/03 00:28:09;;;;;;;2.00;1.80;;;12.10;99.90;;;;;;4123762;28;20050;-64
2021/09/03 00:30:11;;;;;;;6.37;2.30;;;12.20;99.90;;;;;;4125250;28;20034;-64
2021/09/03 00:32:12;;;;;;;3.10;1.97;;;12.20;99.90;;;;;;4123572;28;20046;-65
2021/09/03 00:34:14;;;;;;;3.43;1.97;;;12.20;99.90;;;;;;4122550;28;20085;-63
2021/09/03 00:36:15;;;;;;;5.67;2.07;;;12.20;99.90;;;;;;4120764;28;20057;-63
2021/09/03 00:38:16;;;;;;;4.37;2.40;;;12.20;99.90;;;;;;4124494;28;20077;-64
2021/09/03 00:40:17;;;;;;;4.37;2.37;;;12.20;99.90;;;;;;4124530;28;20019;-64
2021/09/03 00:42:18;;;;;;;5.70;2.67;;;12.20;99.90;;;;;;4123954;28;20081;-63
2021/09/03 00:44:19;;;;;;;4.20;1.97;;;12.20;99.90;;;;;;4124734;28;20104;-64
2021/09/03 00:46:20;;;;;;;4.73;2.00;;;12.20;99.90;;;;;;4123223;28;20026;-63
2021/09/03 00:48:22;;;;;;;4.37;2.20;;;12.20;99.90;;;;;;4125051;28;20026;-64
2021/09/03 00:50:23;;;;;;;3.23;1.80;;;12.20;99.90;;;;;;4124624;28;20565;-64
2021/09/03 00:52:25;;;;;;;3.63;1.90;;;12.30;99.90;;;;;;4125147;28;20049;-63
2021/09/03 00:54:26;;;;;;;4.53;2.33;;;12.30;99.90;;;;;;4123605;28;20042;-65
2021/09/03 00:56:27;;;;;;;5.37;2.40;;;12.30;99.90;;;;;;4126258;28;20054;-65
2021/09/03 00:58:29;;;;;;;5.17;2.40;;;12.20;99.90;;;;;;4126739;28;20046;-64
2021/09/03 01:00:30;;;;;;;3.67;1.97;;;12.20;99.90;;;;;;4126487;28;20054;-63
2021/09/03 01:02:32;;;;;;;7.30;2.03;;;12.30;99.90;;;;;;4141441;28;20050;-66
2021/09/03 01:04:34;;;;;;;4.83;1.90;;;12.30;99.90;;;;;;4127066;28;20038;-64
2021/09/03 01:06:35;;;;;;;6.10;2.23;;;12.30;99.90;;;;;;4127037;28;20069;-64
2021/09/03 01:08:36;;;;;;;3.77;1.97;;;12.30;99.90;;;;;;4128013;28;20034;-64
2021/09/03 01:10:38;;;;;;;4.80;2.30;;;12.30;99.90;;;;;;4127901;28;20086;-65
2021/09/03 01:12:39;;;;;;;4.50;1.90;;;12.30;99.90;;;;;;4126967;28;20038;-64
2021/09/03 01:14:40;;;;;;;4.33;2.50;;;12.30;99.90;;;;;;4127883;28;20073;-63
2021/09/03 01:16:41;;;;;;;2.33;1.60;;;12.30;99.90;;;;;;4126607;28;20116;-63
2021/09/03 01:18:42;;;;;;;4.77;1.87;;;12.30;99.90;;;;;;4126251;28;20560;-63
2021/09/03 01:20:44;;;;;;;3.40;1.97;;;12.30;99.90;;;;;;4121783;28;20027;-64
2021/09/03 01:22:45;;;;;;;4.57;1.93;;;12.30;99.90;;;;;;4122892;28;20030;-64
2021/09/03 01:24:46;;;;;;;8.53;2.10;;;12.30;99.90;;;;;;4121162;28;20089;-64
2021/09/03 01:26:48;;;;;;;4.43;2.07;;;12.30;99.90;;;;;;4122862;28;20694;-63
2021/09/03 01:28:49;;;;;;;3.33;1.77;;;12.30;99.90;;;;;;4122387;28;20553;-63
2021/09/03 01:30:50;;;;;;;6.47;2.13;;;12.30;99.90;;;;;;4122985;28;20038;-63
2021/09/03 01:32:51;;;;;;;4.07;1.80;;;12.30;99.90;;;;;;4121697;28;20486;-65
2021/09/03 01:34:52;;;;;;;4.20;1.90;;;12.30;99.90;;;;;;4125397;28;20090;-63
2021/09/03 01:36:53;;;;;;;4.53;2.30;;;12.30;99.90;;;;;;4125852;28;20592;-64
2021/09/03 01:38:56;;;;;;;8.63;2.03;;;12.20;99.90;;;;;;4127682;28;20039;-64
2021/09/03 01:40:57;;;;;;;5.10;2.30;;;12.20;99.90;;;;;;4127103;28;20073;-64
2021/09/03 01:42:58;;;;;;;3.97;2.03;;;12.20;99.90;;;;;;4126759;28;20034;-63
2021/09/03 01:44:59;;;;;;;2.87;2.07;;;12.20;99.90;;;;;;4127151;28;20093;-63
2021/09/03 01:47:00;;;;;;;5.53;1.80;;;12.20;99.90;;;;;;4126091;28;20089;-65
2021/09/03 01:49:01;;;;;;;5.33;1.77;;;12.30;99.90;;;;;;4127200;28;20085;-63
2021/09/03 01:51:02;;;;;;;3.47;1.83;;;12.30;99.90;;;;;;4126494;28;20497;-63
2021/09/03 01:53:04;;;;;;;4.50;2.37;;;12.30;99.90;;;;;;4127207;28;20042;-64
2021/09/03 01:55:05;;;;;;;4.27;2.03;;;12.20;99.90;;;;;;4126291;28;20038;-64
2021/09/03 01:57:06;;;;;;;2.40;1.90;;;12.20;99.90;;;;;;4127502;28;20109;-63
2021/09/03 01:59:08;;;;;;;5.37;2.33;;;12.20;99.90;;;;;;4125648;28;20055;-63
2021/09/03 02:01:09;;;;;;;5.67;2.07;;;12.30;99.90;;;;;;4127257;28;20093;-66
2021/09/03 02:03:10;;;;;;;7.30;2.00;;;12.20;99.90;;;;;;4126107;28;20038;-64
2021/09/03 02:05:11;;;;;;;3.67;2.50;;;12.20;99.90;;;;;;4127055;28;20182;-64
2021/09/03 02:07:12;;;;;;;5.40;2.37;;;12.30;99.90;;;;;;4125602;28;20050;-65
2021/09/03 02:09:14;;;;;;;5.63;2.70;;;12.20;99.90;;;;;;4126138;28;20034;-63
2021/09/03 02:11:17;;;;;;;5.10;2.30;;;12.20;99.90;;;;;;4126139;28;20077;-63
2021/09/03 02:13:18;;;;;;;6.17;2.47;;;12.10;99.90;;;;;;4126388;28;20034;-63
2021/09/03 02:15:19;;;;;;;4.30;2.70;;;12.10;99.90;;;;;;4126861;28;20442;-64
2021/09/03 02:17:20;;;;;;;2.63;2.17;;;12.10;99.90;;;;;;4126211;28;20574;-63
2021/09/03 02:19:22;;;;;;;4.30;2.30;;;12.10;99.90;;;;;;4127217;28;20046;-64
2021/09/03 02:21:23;;;;;;;4.50;2.10;;;12.10;99.90;;;;;;4126049;28;20026;-62
2021/09/03 02:23:24;;;;;;;6.40;2.40;;;12.10;99.90;;;;;;4126989;28;20045;-64
2021/09/03 02:25:25;;;;;;;7.40;1.93;;;12.20;99.90;;;;;;4124174;28;20093;-63
2021/09/03 02:27:26;;;;;;;8.63;2.10;;;12.20;99.90;;;;;;4126910;28;20037;-63
2021/09/03 02:29:27;;;;;;;5.20;1.97;;;12.20;99.90;;;;;;4125755;28;20039;-63
2021/09/03 02:31:28;;;;;;;2.47;1.90;;;12.20;99.90;;;;;;4126727;28;20058;-64
2021/09/03 02:33:30;;;;;;;2.70;1.90;;;12.20;99.90;;;;;;4125941;28;20046;-64
2021/09/03 02:35:31;;;;;;;3.97;2.23;;;12.20;99.90;;;;;;4126743;28;20042;-65
2021/09/03 02:37:32;;;;;;;4.70;1.97;;;12.20;99.90;;;;;;4140475;28;20049;-65
2021/09/03 02:39:33;;;;;;;2.73;1.90;;;12.30;99.90;;;;;;4125806;28;20561;-64
2021/09/03 02:41:34;;;;;;;4.27;2.10;;;12.30;99.90;;;;;;4125252;28;20081;-65
2021/09/03 02:43:35;;;;;;;3.50;2.00;;;12.30;99.90;;;;;;4125928;28;20952;-63
2021/09/03 02:45:36;;;;;;;3.07;2.43;;;12.30;99.90;;;;;;4126302;28;20097;-64
2021/09/03 02:47:37;;;;;;;5.00;1.90;;;12.30;99.90;;;;;;4124902;28;20088;-63
2021/09/03 02:49:39;;;;;;;2.33;1.80;;;12.30;99.90;;;;;;4126458;28;20042;-63
2021/09/03 02:51:40;;;;;;;5.17;1.90;;;12.30;99.90;;;;;;4125607;28;20093;-63
2021/09/03 02:53:41;;;;;;;7.47;2.00;;;12.30;99.90;;;;;;4126264;28;20188;-64
2021/09/03 02:55:42;;;;;;;3.53;2.33;;;12.30;99.90;;;;;;4124934;28;20604;-63
2021/09/03 02:57:43;;;;;;;7.50;2.50;;;12.20;99.90;;;;;;4126374;28;20046;-63
2021/09/03 02:59:44;;;;;;;4.67;2.00;;;12.30;99.90;;;;;;4125358;28;20178;-64
2021/09/03 03:01:45;;;;;;;4.10;2.50;;;12.30;99.90;;;;;;4127899;28;20043;-63
2021/09/03 03:03:46;;;;;;;5.27;2.17;;;12.30;99.90;;;;;;4124815;28;20034;-63
2021/09/03 03:05:48;;;;;;;6.93;2.10;;;12.30;99.90;;;;;;4126232;28;20479;-64
2021/09/03 03:07:49;;;;;;;3.80;1.90;;;12.30;99.90;;;;;;4125188;28;20019;-64
2021/09/03 03:09:50;;;;;;;6.53;2.20;;;12.30;99.90;;;;;;4125697;28;20026;-65
2021/09/03 03:11:51;;;;;;;3.03;2.20;;;12.30;99.90;;;;;;4125414;28;20514;-64
2021/09/03 03:14:02;;;;;;;5.13;2.23;;;12.30;99.90;;;;;;4125028;28;20102;-63
2021/09/03 03:16:04;;;;;;;4.68;2.05;;;12.30;99.90;;;;;;4125066;28;20034;-65
2021/09/03 03:18:05;;;;;;;3.67;2.10;;;12.30;99.90;;;;;;4124574;28;20042;-64
2021/09/03 03:20:06;;;;;;;3.50;1.97;;;12.30;99.90;;;;;;4125489;28;20030;-64
2021/09/03 03:22:07;;;;;;;5.57;2.47;;;12.30;99.90;;;;;;4125288;28;20022;-63
2021/09/03 03:24:08;;;;;;;7.37;2.43;;;12.20;99.90;;;;;;4125509;28;20081;-63
2021/09/03 03:26:10;;;;;;;4.20;2.40;;;12.20;99.90;;;;;;4124180;28;20038;-63
2021/09/03 03:28:11;;;;;;;4.17;1.90;;;12.20;99.90;;;;;;4126170;28;20028;-65
2021/09/03 03:30:12;;;;;;;5.43;2.40;;;12.20;99.90;;;;;;4124736;28;20034;-64
2021/09/03 03:32:13;;;;;;;7.43;2.43;;;12.20;99.90;;;;;;4126045;28;20617;-63
2021/09/03 03:34:14;;;;;;;4.87;2.20;;;12.20;99.90;;;;;;4123845;28;20093;-64
2021/09/03 03:36:15;;;;;;;4.27;2.47;;;12.10;99.90;;;;;;4125469;28;20026;-64
2021/09/03 03:38:17;;;;;;;4.47;1.90;;;12.10;99.90;;;;;;4124563;28;20045;-66
2021/09/03 03:40:18;;;;;;;3.47;2.30;;;12.10;99.90;;;;;;4125305;28;20038;-64
2021/09/03 03:42:19;;;;;;;6.00;2.97;;;12.10;99.90;;;;;;4124548;28;20049;-63
2021/09/03 03:44:20;;;;;;;2.67;1.83;;;12.10;99.90;;;;;;4124768;28;20465;-66
2021/09/03 03:46:22;;;;;;;4.77;2.33;;;12.10;99.90;;;;;;4124634;28;20097;-63
2021/09/03 03:48:24;;;;;;;4.80;2.07;;;12.10;99.90;;;;;;4124897;28;20442;-64
2021/09/03 03:50:26;;;;;;;6.17;2.50;;;12.10;99.90;;;;;;4123225;28;20073;-65
2021/09/03 03:52:27;;;;;;;4.47;2.63;;;12.10;99.90;;;;;;4124613;28;20066;-64
2021/09/03 03:54:28;;;;;;;4.10;2.10;;;12.10;99.90;;;;;;4125235;28;20766;-63
2021/09/03 03:56:30;;;;;;;5.20;2.63;;;12.00;99.90;;;;;;4123951;28;20097;-63
2021/09/03 03:58:31;;;;;;;4.90;2.40;;;12.10;99.90;;;;;;4125767;28;20046;-63
2021/09/03 04:00:32;;;;;;;6.87;2.57;;;12.00;99.90;;;;;;4123089;28;20120;-63
2021/09/03 04:02:33;;;;;;;4.33;2.07;;;12.10;99.90;;;;;;4124145;28;20093;-63
2021/09/03 04:04:34;;;;;;;6.63;2.60;;;12.20;99.90;;;;;;4124239;28;20069;-64
2021/09/03 04:06:35;;;;;;;6.87;2.40;;;12.40;99.90;;;;;;4125291;28;20111;-63
2021/09/03 04:08:36;;;;;;;6.53;3.00;;;12.50;99.90;;;;;;4123093;28;20450;-62
2021/09/03 04:10:37;;;;;;;3.97;2.73;;;12.70;99.90;;;;;;4125103;28;20075;-64
2021/09/03 04:12:41;;;;;;;10.40;2.73;;;13.00;99.90;;;;;;4124825;28;20030;-64
2021/09/03 04:14:43;;;;;;;7.40;2.70;;;13.10;99.90;;;;;;4123481;28;20096;-65
2021/09/03 04:16:46;;;;;;;9.80;2.97;;;13.30;99.90;;;;;;4124626;28;20545;-63
2021/09/03 04:18:47;;;;;;;4.00;2.80;;;13.40;99.90;;;;;;4122604;28;20049;-64
2021/09/03 04:20:48;;;;;;;5.83;2.87;;;13.60;99.90;;;;;;4110112;28;20035;-65
2021/09/03 04:22:49;;;;;;;6.83;3.00;;;13.80;99.90;;;;;;4122552;28;20034;-63
2021/09/03 04:24:50;;;;;;;10.73;3.43;;;14.00;99.90;;;;;;4109012;28;20047;-64
2021/09/03 04:26:51;;;;;;;8.33;3.00;;;14.30;99.90;;;;;;4108781;28;20034;-63
2021/09/03 04:28:52;;;;;;;5.03;2.83;;;14.60;99.90;;;;;;4108717;28;20038;-64
2021/09/03 04:30:55;;;;;;;9.50;3.43;;;15.00;99.90;;;;;;4106921;28;20035;-64
2021/09/03 04:32:56;;;;;;;9.03;3.37;;;15.30;99.90;;;;;;4108543;28;20364;-64
2021/09/03 04:34:57;;;;;;;6.30;2.85;;;15.60;99.90;;;;;;4107553;28;20039;-65
2021/09/03 04:36:58;;;;;;;8.32;2.85;;;15.90;99.90;;;;;;4116333;28;20100;-64
2021/09/03 04:38:59;;;;;;;9.70;2.85;;;16.20;99.90;;;;;;4123795;28;20079;-64
2021/09/03 04:41:00;;;;;;;6.43;2.55;;;16.60;99.90;;;;;;4124885;28;20026;-65
2021/09/03 04:43:02;;;;;;;10.57;3.03;;;17.00;99.90;;;;;;4123853;28;20019;-65
2021/09/03 04:45:04;;;;;;;9.43;2.63;;;17.30;99.90;;;;;;4124389;28;20030;-67
2021/09/03 04:47:05;;;;;;;5.93;2.20;;;17.90;99.90;;;;;;4123965;28;20026;-64
2021/09/03 04:49:06;;;;;;;6.70;3.33;;;18.40;99.90;;;;;;4123905;28;20069;-67
2021/09/03 04:51:07;;;;;;;7.13;3.08;;;18.90;99.90;;;;;;4124613;28;20073;-65
2021/09/03 04:53:09;;;;;;;8.15;2.80;;;19.20;99.90;;;;;;4123648;28;20574;-66
2021/09/03 04:55:11;;;;;;;11.40;2.70;;;19.40;99.90;;;;;;4124910;28;20038;-65
2021/09/03 04:57:12;;;;;;;5.97;2.85;;;19.60;99.90;;;;;;4123269;28;20050;-65
2021/09/03 04:59:13;;;;;;;5.63;2.90;;;19.70;99.90;;;;;;4124450;28;20438;-65
2021/09/03 05:01:14;;;;;;;11.80;2.80;;;20.00;99.90;;;;;;4123147;28;20034;-65
2021/09/03 05:03:16;;;;;;;6.15;3.03;;;20.10;99.90;;;;;;4124499;28;20080;-64
2021/09/03 05:05:18;;;;;;;9.77;2.92;;;20.40;99.90;;;;;;4123349;28;20088;-65
2021/09/03 05:07:19;;;;;;;7.20;3.42;;;20.70;99.80;;;;;;4124751;28;20072;-65
2021/09/03 05:09:20;;;;;;;5.75;3.03;;;20.80;99.20;;;;;;4120495;28;20030;-65
2021/09/03 05:11:21;;;;;;;5.95;2.85;;;20.80;98.70;;;;;;4109976;28;20096;-64
2021/09/03 05:13:22;;;;;;;11.65;3.40;;;20.90;98.60;;;;;;4115002;28;20663;-65
2021/09/03 05:15:35;;;;;;;8.30;3.00;;;20.90;98.40;;;;;;4122277;28;20092;-65
2021/09/03 05:17:38;;;;;;;8.95;2.97;;;21.20;97.30;;;;;;4122208;28;20379;-64
2021/09/03 05:19:43;;;;;;;7.90;3.20;;;21.40;97.70;;;;;;4112344;28;20093;-64
2021/09/03 05:21:45;;;;;;;6.65;2.90;;;21.60;97.30;;;;;;4117404;28;20050;-63
2021/09/03 05:23:46;;;;;;;7.75;2.25;;;21.70;97.10;;;;;;4116906;28;20097;-64
2021/09/03 05:25:47;;;;;;;4.22;2.17;;;21.80;96.50;;;;;;4122281;28;20066;-64
2021/09/03 05:27:48;;;;;;;7.03;2.65;;;21.70;96.10;;;;;;4123933;28;20050;-63
2021/09/03 05:29:49;;;;;;;9.30;2.60;;;21.80;96.00;;;;;;4122814;28;20085;-62
2021/09/03 05:31:50;;;;;;;5.90;2.10;;;21.60;95.70;;;;;;4123098;28;20561;-63
2021/09/03 05:33:51;;;;;;;5.40;2.50;;;22.10;95.40;;;;;;4124281;28;20034;-62
2021/09/03 05:35:52;;;;;;;6.57;2.28;;;22.60;94.80;;;;;;4122894;28;20030;-63
2021/09/03 05:37:54;;;;;;;10.80;2.70;;;23.00;94.10;;;;;;4124169;28;20605;-63
2021/09/03 05:39:55;;;;;;;8.43;2.83;;;23.20;93.80;;;;;;4122894;28;20487;-63
2021/09/03 05:41:56;;;;;;;9.27;2.67;;;23.50;93.20;;;;;;4124859;28;20038;-63
2021/09/03 05:43:58;;;;;;;5.07;2.60;;;23.80;92.70;;;;;;4125829;28;20124;-63
2021/09/03 05:45:59;;;;;;;8.90;2.83;;;24.00;92.20;;;;;;4126858;28;20022;-64
2021/09/03 05:48:02;;;;;;;5.35;2.00;;;24.30;91.70;;;;;;4126047;28;20050;-64
2021/09/03 05:50:03;;;;;;;5.32;2.03;;;24.40;91.20;;;;;;4126575;28;20050;-62
2021/09/03 05:52:04;;;;;;;4.90;2.20;;;24.40;90.80;;;;;;4126950;28;20047;-63
2021/09/03 05:54:08;;;;;;;5.15;2.13;;;24.20;90.50;;;;;;4126086;28;20426;-63
2021/09/03 05:56:10;;;;;;;6.78;2.60;;;24.30;90.50;;;;;;4126367;28;20034;-63
2021/09/03 05:58:11;;;;;;;3.72;2.00;;;24.30;90.10;;;;;;4125485;28;20046;-63
2021/09/03 06:00:12;;;;;;;5.50;2.22;;;24.40;89.80;;;;;;4126902;28;20053;-63
2021/09/03 06:02:13;;;;;;;3.80;2.00;;;24.70;88.80;;;;;;4125702;28;20034;-64
2021/09/03 06:04:14;;;;;;;6.97;2.50;;;25.00;87.80;;;;;;4127107;28;20686;-63
2021/09/03 06:06:15;;;;;;;8.93;2.10;;;24.80;87.20;;;;;;4125483;28;20065;-64
2021/09/03 06:08:16;;;;;;;6.88;1.83;;;25.10;86.90;;;;;;4127430;28;20042;-64
2021/09/03 06:10:18;;;;;;;2.85;1.70;;;25.30;86.20;;;;;;4125610;28;20030;-64
2021/09/03 06:12:19;;;;;;;5.10;2.60;;;25.50;85.00;;;;;;4125281;28;20038;-64
2021/09/03 06:14:20;;;;;;;6.10;1.92;;;25.30;84.10;;;;;;4126339;28;20438;-64
2021/09/03 06:16:23;;;;;;;2.28;1.75;;;25.40;84.10;;;;;;4126568;28;20505;-64
2021/09/03 06:18:24;;;;;;;1.98;1.55;;;25.50;83.70;;;;;;4125625;28;20050;-64
2021/09/03 06:20:25;;;;;;;6.68;2.28;;;25.60;82.90;;;;;;4126423;28;20426;-64
2021/09/03 06:22:26;;;;;;;3.45;2.03;;;25.60;82.20;;;;;;4126059;28;20084;-64
2021/09/03 06:24:28;;;;;;;11.85;3.35;;;25.80;82.00;;;;;;4126254;28;20430;-64
2021/09/03 06:26:29;;;;;;;4.20;1.85;;;26.00;81.00;;;;;;4125895;28;20034;-64
2021/09/03 06:28:30;;;;;;;9.27;1.80;;;26.30;80.40;;;;;;4125962;28;20082;-63
2021/09/03 06:30:31;;;;;;;7.13;1.70;;;26.40;79.80;;;;;;4126106;28;20034;-64
2021/09/03 06:32:33;;;;;;;6.30;1.70;;;26.30;79.30;;;;;;4125571;28;20042;-64
2021/09/03 06:34:35;;;;;;;2.95;1.40;;;25.70;79.20;;;;;;4126564;28;20398;-64
2021/09/03 06:36:36;;;;;;;3.53;1.92;;;25.10;80.00;;;;;;4125048;28;20092;-64
2021/09/03 06:38:37;;;;;;;5.53;2.20;;;24.80;80.30;;;;;;4126387;28;20885;-64
2021/09/03 06:40:39;;;;;;;7.60;2.00;;;24.30;81.30;;;;;;4125171;28;20084;-64
2021/09/03 06:42:40;;;;;;;7.35;2.20;;;24.20;81.30;;;;;;4126549;28;20089;-63
2021/09/03 06:44:41;;;;;;;3.55;1.50;;;24.10;81.80;;;;;;4125246;28;20038;-64
2021/09/03 06:46:42;;;;;;;4.75;2.15;;;24.30;81.80;;;;;;4126506;28;20030;-63
2021/09/03 06:48:43;;;;;;;4.55;1.90;;;23.90;82.10;;;;;;4124893;28;20089;-63
2021/09/03 06:50:44;;;;;;;6.60;2.25;;;23.50;82.60;;;;;;4125890;28;20537;-63
2021/09/03 06:52:46;;;;;;;2.63;1.85;;;23.50;83.30;;;;;;4125172;28;20096;-64
2021/09/03 06:54:49;;;;;;;5.78;1.85;;;23.70;82.90;;;;;;4125086;28;20100;-64
2021/09/03 06:56:50;;;;;;;3.85;1.90;;;23.80;83.00;;;;;;4125465;28;20403;-63
2021/09/03 06:58:51;;;;;;;7.97;2.22;;;23.70;82.90;;;;;;4124530;28;20743;-63
2021/09/03 07:00:52;;;;;;;6.40;1.80;;;23.90;83.00;;;;;;4125390;28;20035;-63
2021/09/03 07:02:53;;;;;;;5.90;1.73;;;24.30;82.20;;;;;;4124606;28;20050;-63
2021/09/03 07:04:54;;;;;;;3.95;2.25;;;24.50;81.80;;;;;;4126096;28;20081;-64
2021/09/03 07:06:56;;;;;;;3.70;2.10;;;24.60;81.40;;;;;;4124757;28;20032;-63
2021/09/03 07:08:57;;;;;;;3.97;2.17;;;24.40;81.70;;;;;;4126150;28;20038;-63
2021/09/03 07:10:58;;;;;;;4.35;1.80;;;24.00;82.00;;;;;;4124503;28;20089;-63
2021/09/03 07:12:59;;;;;;;4.47;1.80;;;23.90;83.00;;;;;;4125976;28;20491;-63
2021/09/03 07:15:00;;;;;;;4.20;2.15;;;24.10;82.90;;;;;;4124072;28;20030;-63
2021/09/03 07:17:02;;;;;;;3.10;2.25;;;24.50;82.50;;;;;;4125921;28;20469;-64
2021/09/03 07:19:03;;;;;;;4.40;2.22;;;24.50;82.30;;;;;;4125245;28;20096;-64
2021/09/03 07:21:04;;;;;;;3.35;2.05;;;24.50;82.20;;;;;;4125573;28;20030;-64
2021/09/03 07:23:05;;;;;;;4.38;2.42;;;24.30;82.60;;;;;;4124627;28;20510;-64
2021/09/03 07:25:09;;;;;;;4.28;2.20;;;24.10;82.80;;;;;;4124096;28;20104;-63
2021/09/03 07:27:10;;;;;;;4.70;2.17;;;24.00;83.30;;;;;;4125543;28;20466;-64
2021/09/03 07:29:11;;;;;;;5.18;2.10;;;24.20;83.20;;;;;;4124324;28;20134;-64
2021/09/03 07:31:12;;;;;;;6.18;1.80;;;24.30;82.50;;;;;;4125245;28;20030;-64
2021/09/03 07:33:13;;;;;;;4.47;1.80;;;24.50;82.50;;;;;;4123802;28;20093;-63
2021/09/03 07:35:15;;;;;;;11.35;4.05;;;24.50;82.30;;;;;;4125684;28;20517;-64
2021/09/03 07:37:16;;;;;;;4.70;2.47;;;24.40;82.50;;;;;;4124410;28;20093;-64
2021/09/03 07:39:21;;;;;;;6.43;3.42;;;24.50;82.50;;;;;;4125975;28;20729;-63
2021/09/03 07:41:23;;;;;;;2.97;2.03;;;24.50;82.00;;;;;;4124020;28;20034;-64
2021/09/03 07:43:24;;;;;;;6.18;2.15;;;24.50;82.00;;;;;;4125947;28;20940;-63
2021/09/03 07:45:26;;;;;;;5.15;2.67;;;24.20;82.40;;;;;;4123877;28;20030;-64
2021/09/03 07:47:28;;;;;;;3.70;2.13;;;23.70;83.10;;;;;;4125371;28;20058;-63
2021/09/03 07:49:29;;;;;;;6.38;2.95;;;23.10;84.20;;;;;;4123728;28;20038;-63
2021/09/03 07:51:30;;;;;;;5.63;2.70;;;22.70;85.30;;;;;;4125623;28;20554;-63
2021/09/03 07:53:31;;;;;;;6.78;2.42;;;23.00;85.50;;;;;;4124299;28;20014;-64
2021/09/03 07:55:34;;;;;;;3.78;2.20;;;22.30;85.60;;;;;;4124705;28;20097;-64
2021/09/03 07:57:35;;;;;;;5.80;2.78;;;21.50;87.30;;;;;;4124289;28;20066;-64
2021/09/03 07:59:36;;;;;;;3.72;2.42;;;20.80;89.70;;;;;;4124283;28;20042;-63
2021/09/03 08:01:37;;;;;;;11.15;2.78;;;20.40;90.30;;;;;;4124732;28;20368;-63
2021/09/03 08:03:38;;;;;;;4.00;2.60;;;20.30;90.70;;;;;;4124006;28;20039;-64
2021/09/03 08:05:39;;;;;;;7.22;2.70;;;20.20;90.80;;;;;;4123986;28;20521;-63
2021/09/03 08:07:44;;;;;;;3.78;2.30;;;20.20;91.00;;;;;;4123961;28;20084;-63
2021/09/03 08:09:45;;;;;;;3.60;2.28;;;20.20;91.00;;;;;;4123707;28;20491;-63
2021/09/03 08:11:46;;;;;;;7.68;2.28;;;20.20;90.90;;;;;;4123496;28;20105;-64
2021/09/03 08:13:47;;;;;;;4.28;2.50;;;20.40;91.00;;;;;;4124884;28;20034;-64
2021/09/03 08:15:48;;;;;;;4.07;2.50;;;20.80;90.90;;;;;;4123183;28;20038;-64
2021/09/03 08:17:49;;;;;;;5.38;3.20;;;21.40;90.40;;;;;;4124686;28;20050;-63
2021/09/03 08:19:50;;;;;;;4.57;2.47;;;21.10;90.30;;;;;;4123934;28;20093;-64
2021/09/03 08:21:51;;;;;;;5.97;2.47;;;20.90;90.70;;;;;;4125357;28;20030;-64
2021/09/03 08:23:52;;;;;;;3.30;2.38;;;20.90;90.80;;;;;;4123558;28;20038;-64
2021/09/03 08:25:54;;;;;;;4.25;2.03;;;21.10;90.40;;;;;;4124357;28;20422;-64
2021/09/03 08:27:55;;;;;;;3.28;2.10;;;21.20;90.10;;;;;;4123677;28;20038;-64
2021/09/03 08:29:56;;;;;;;3.38;2.42;;;21.10;90.00;;;;;;4124049;28;20042;-64
2021/09/03 08:31:57;;;;;;;6.15;2.60;;;21.30;89.60;;;;;;4124727;28;20488;-64
2021/09/03 08:33:58;;;;;;;2.90;1.52;;;21.50;89.50;;;;;;4123751;28;20057;-64
2021/09/03 08:36:00;;;;;;;3.85;2.30;;;21.60;87.10;;;;;;4124304;28;20081;-64
2021/09/03 08:38:01;;;;;;;4.60;2.42;;;21.40;86.80;;;;;;4123460;28;20549;-64
2021/09/03 08:40:03;;;;;;;5.78;2.80;;;21.30;87.70;;;;;;4124315;28;20042;-64
2021/09/03 08:42:05;;;;;;;7.00;2.40;;;21.50;87.90;;;;;;4122834;28;20141;-64
2021/09/03 08:44:06;;;;;;;4.78;1.98;;;21.90;87.80;;;;;;4124825;28;20101;-64
2021/09/03 08:46:07;;;;;;;4.05;1.75;;;21.90;87.10;;;;;;4122873;28;20069;-64
2021/09/03 08:48:09;;;;;;;4.70;2.63;;;21.80;86.70;;;;;;4124025;28;20065;-64
2021/09/03 08:50:13;;;;;;;2.53;1.67;;;22.00;86.50;;;;;;4123037;28;20030;-64
2021/09/03 08:52:14;;;;;;;3.28;2.38;;;21.80;86.20;;;;;;4124473;28;20045;-64
2021/09/03 08:54:18;;;;;;;4.57;1.48;;;21.30;86.20;;;;;;4122783;28;20439;-64
2021/09/03 08:56:20;;;;;;;6.07;3.15;;;21.00;86.40;;;;;;4124283;28;20054;-64
2021/09/03 08:58:22;;;;;;;3.88;2.17;;;20.90;86.40;;;;;;4123542;28;20058;-63
2021/09/03 09:00:26;;;;;;;3.72;1.88;;;21.10;86.60;;;;;;4123568;28;20102;-64
2021/09/03 09:02:28;;;;;;;3.05;1.65;;;21.30;85.50;;;;;;4123203;28;20026;-64
2021/09/03 09:04:36;;;;;;;2.78;1.70;;;21.30;85.40;;;;;;4123742;28;20042;-64
2021/09/03 09:06:38;;;;;;;5.80;1.80;;;21.20;83.80;;;;;;4123354;28;20034;-64
2021/09/03 09:08:39;;;;;;;4.88;2.00;;;21.30;85.10;;;;;;4123567;28;20422;-62
2021/09/03 09:11:02;;;;;;;4.63;1.52;;;21.50;85.00;;;;;;4123829;28;20364;-62
2021/09/03 09:13:40;;;;;;;1.63;1.23;;;21.70;84.20;;;;;;4123795;28;20190;-63
2021/09/03 09:15:42;;;;;;;2.60;1.67;;;21.80;80.20;;;;;;4122622;28;20172;-63
2021/09/03 09:17:44;;;;;;;4.32;1.88;;;22.00;82.00;;;;;;4124930;28;20042;-63
2021/09/03 09:19:46;;;;;;;5.18;1.85;;;22.10;82.10;;;;;;4126541;28;20054;-63
2021/09/03 09:21:48;;;;;;;2.75;1.50;;;22.10;81.90;;;;;;4126946;28;20085;-63
2021/09/03 09:23:49;;;;;;;1.60;1.13;;;22.10;81.60;;;;;;4126959;28;20537;-63
2021/09/03 09:25:58;;;;;;;3.15;1.45;;;22.30;81.20;;;;;;4126713;28;20046;-63
2021/09/03 09:28:21;;;;;;;3.72;1.67;;;22.30;78.90;;;;;;4127502;28;20082;-63
2021/09/03 09:30:26;;;;;;;2.65;1.63;;;22.30;79.40;;;;;;4126441;28;20101;-63
2021/09/03 09:32:28;;;;;;;7.40;1.92;;;22.30;79.50;;;;;;4126880;28;20438;-63
2021/09/03 09:34:32;;;;;;;2.03;1.67;;;21.70;78.90;;;;;;4126358;28;20086;-63
2021/09/03 09:36:35;;;;;;;3.67;2.00;;;21.60;79.50;;;;;;4127189;28;20034;-63
2021/09/03 09:38:36;;;;;;;2.92;2.25;;;21.30;79.60;;;;;;4126135;28;20053;-63
2021/09/03 09:41:08;;;;;;;4.43;1.75;;;21.30;79.70;;;;;;4127114;28;20035;-64
2021/09/03 09:43:29;;;;;;;2.58;1.80;;;21.40;80.20;;;;;;4113778;28;20050;-64
2021/09/03 09:45:30;;;;;;;2.03;1.42;;;21.30;80.40;;;;;;4126923;28;20101;-63
2021/09/03 09:47:31;;;;;;;4.00;1.45;;;21.10;80.40;;;;;;4126193;28;20030;-64
2021/09/03 09:49:32;;;;;;;4.75;1.55;;;20.70;80.20;;;;;;4127154;28;20160;-63
2021/09/03 09:51:36;;;;;;;7.95;2.85;;;20.60;80.30;;;;;;4126063;28;20120;-63
2021/09/03 09:53:37;;;;;;;10.80;2.45;;;20.80;80.20;;;;;;4127487;28;20046;-64
2021/09/03 09:55:39;;;;;;;4.65;1.85;;;20.80;79.00;;;;;;4125605;28;20089;-63
2021/09/03 09:57:42;;;;;;;8.05;2.58;;;20.90;80.20;;;;;;4126413;28;20092;-63
2021/09/03 09:59:44;;;;;;;5.75;1.50;;;20.70;80.40;;;;;;4125289;28;20046;-64
2021/09/03 10:01:48;;;;;;;6.22;1.70;;;20.90;80.70;;;;;;4127321;28;20104;-63
2021/09/03 10:03:53;;;;;;;3.85;1.50;;;20.90;79.70;;;;;;4125566;28;20433;-63
2021/09/03 10:05:55;;;;;;;3.83;1.42;;;21.20;79.40;;;;;;4126619;28;20046;-64
2021/09/03 10:07:57;;;;;;;3.42;1.45;;;21.50;79.10;;;;;;4125617;28;20035;-64
2021/09/03 10:09:58;;;;;;;4.03;1.30;;;21.70;78.90;;;;;;4126746;28;20442;-64
2021/09/03 10:12:01;;;;;;;14.60;2.85;;;21.50;78.20;;;;;;4124823;28;20030;-64
2021/09/03 10:14:05;;;;;;;4.97;2.00;;;21.20;79.10;;;;;;4126664;28;20042;-63
2021/09/03 10:16:06;;;;;;;12.80;2.78;;;21.20;79.90;;;;;;4125770;28;20065;-63
2021/09/03 10:18:07;;;;;;;2.03;1.38;;;21.20;79.90;;;;;;4125866;28;20073;-64
2021/09/03 10:20:09;;;;;;;5.43;1.40;;;21.30;78.90;;;;;;4126029;28;20369;-64
2021/09/03 10:22:16;;;;;;;1.95;1.17;;;21.50;78.90;;;;;;4126082;28;20046;-64
2021/09/03 10:24:24;;;;;;;2.08;1.10;;;21.70;77.20;;;;;;4125932;28;20042;-63
2021/09/03 10:26:39;;;;;;;1.90;1.30;;;21.90;76.80;;;;;;4125735;28;20046;-64
2021/09/03 10:28:41;;;;;;;4.05;1.35;;;21.60;76.10;;;;;;4125261;28;20132;-64
2021/09/03 10:31:05;;;;;;;7.78;2.40;;;21.70;77.10;;;;;;4124885;28;20129;-64
2021/09/03 10:33:10;;;;;;;1.75;1.38;;;21.50;77.10;;;;;;4124951;28;20089;-64
2021/09/03 10:35:20;;;;;;;2.20;1.40;;;21.40;77.70;;;;;;4125591;28;20026;-64